createdAt,value
2023-02-12T00:01:56.972Z,24.12
2023-02-12T00:04:23.360Z,24.12
2023-02-12T00:06:49.705Z,24.10
2023-02-12T00:09:16.058Z,24.09
2023-02-12T00:11:42.377Z,24.07
2023-02-12T00:14:08.708Z,24.04
2023-02-12T00:16:35.069Z,24.04
2023-02-12T00:19:01.445Z,24.02
2023-02-12T00:21:27.830Z,24.00
2023-02-12T00:23:54.161Z,24.00
2023-02-12T00:26:21.010Z,23.97
2023-02-12T00:28:47.318Z,23.89
2023-02-12T00:31:14.577Z,23.81
2023-02-12T00:33:40.935Z,23.84
2023-02-12T00:36:07.590Z,23.86
2023-02-12T00:38:33.949Z,23.85
2023-02-12T00:41:00.270Z,23.83
2023-02-12T00:43:26.588Z,23.79
2023-02-12T00:45:53.200Z,23.79
2023-02-12T00:48:19.725Z,23.74
2023-02-12T00:50:46.209Z,23.67
2023-02-12T00:53:12.668Z,23.56
2023-02-12T00:55:38.988Z,23.50
2023-02-12T00:58:05.315Z,23.44
2023-02-12T01:00:32.440Z,23.35
2023-02-12T01:02:58.796Z,23.40
2023-02-12T01:05:25.418Z,23.38
2023-02-12T01:07:51.939Z,23.35
2023-02-12T01:10:18.319Z,23.33
2023-02-12T01:15:10.861Z,23.28
2023-02-12T01:17:37.170Z,23.28
2023-02-12T01:20:05.736Z,23.24
2023-02-12T01:22:32.061Z,23.20
2023-02-12T01:24:58.394Z,23.23
2023-02-12T01:27:24.714Z,23.23
2023-02-12T01:29:51.070Z,23.19
2023-02-12T01:32:17.483Z,23.17
2023-02-12T01:34:43.877Z,23.14
2023-02-12T01:37:10.273Z,23.12
2023-02-12T01:39:36.629Z,23.10
2023-02-12T01:42:03.415Z,23.06
2023-02-12T01:44:29.878Z,23.01
2023-02-12T01:46:57.355Z,23.00
2023-02-12T01:49:29.307Z,22.93
2023-02-12T01:51:57.924Z,22.92
2023-02-12T01:54:26.052Z,22.90
2023-02-12T01:56:52.377Z,22.86
2023-02-12T01:59:18.892Z,22.83
2023-02-12T02:01:45.279Z,22.81
2023-02-12T02:04:12.510Z,22.79
2023-02-12T02:06:41.719Z,22.76
2023-02-12T02:09:08.033Z,22.74
2023-02-12T02:11:53.117Z,22.71
2023-02-12T02:14:34.676Z,22.68
2023-02-12T02:17:19.672Z,22.66
2023-02-12T02:19:48.979Z,22.62
2023-02-12T02:22:21.247Z,22.61
2023-02-12T02:24:50.573Z,22.59
2023-02-12T02:27:21.016Z,22.58
2023-02-12T02:29:50.031Z,22.56
2023-02-12T02:32:23.571Z,22.54
2023-02-12T02:34:50.676Z,22.53
2023-02-12T02:37:18.583Z,22.51
2023-02-12T02:39:52.836Z,22.51
2023-02-12T02:42:22.094Z,22.51
2023-02-12T02:44:50.103Z,22.49
2023-02-12T02:47:16.829Z,22.48
2023-02-12T02:49:44.783Z,22.46
2023-02-12T02:52:12.599Z,22.45
2023-02-12T02:54:40.598Z,22.43
2023-02-12T02:57:17.610Z,22.41
2023-02-12T02:59:45.221Z,22.39
2023-02-12T03:02:33.445Z,22.36
2023-02-12T03:05:19.693Z,22.32
2023-02-12T03:07:47.478Z,22.32
2023-02-12T03:10:15.448Z,22.31
2023-02-12T03:12:47.749Z,22.28
2023-02-12T03:15:16.362Z,22.25
2023-02-12T03:17:43.560Z,22.26
2023-02-12T03:20:14.371Z,22.25
2023-02-12T03:22:41.209Z,22.22
2023-02-12T03:25:12.054Z,22.22
2023-02-12T03:27:39.228Z,22.18
2023-02-12T03:30:05.794Z,22.16
2023-02-12T03:32:38.072Z,22.18
2023-02-12T03:35:16.633Z,22.18
2023-02-12T03:37:51.976Z,22.17
2023-02-12T03:40:37.199Z,22.17
2023-02-12T03:43:05.077Z,22.16
2023-02-12T03:45:37.822Z,22.15
2023-02-12T03:48:11.744Z,22.14
2023-02-12T03:50:44.794Z,22.12
2023-02-12T03:53:11.108Z,22.08
2023-02-12T03:55:38.523Z,22.07
2023-02-12T03:58:04.832Z,22.04
2023-02-12T04:00:31.178Z,22.01
2023-02-12T04:02:57.485Z,22.01
2023-02-12T04:05:24.873Z,22.00
2023-02-12T04:07:51.382Z,21.99
2023-02-12T04:10:17.829Z,21.98
2023-02-12T04:12:51.536Z,21.96
2023-02-12T04:15:33.188Z,21.95
2023-02-12T04:18:07.644Z,21.95
2023-02-12T04:20:52.961Z,21.91
2023-02-12T04:23:37.713Z,21.90
2023-02-12T04:26:04.033Z,21.88
2023-02-12T04:28:49.142Z,21.88
2023-02-12T04:31:21.730Z,21.89
2023-02-12T04:33:49.233Z,21.86
2023-02-12T04:36:16.730Z,21.88
2023-02-12T04:38:55.929Z,21.87
2023-02-12T04:41:22.551Z,21.87
2023-02-12T04:43:48.875Z,21.86
2023-02-12T04:46:15.439Z,21.85
2023-02-12T04:48:49.854Z,21.82
2023-02-12T04:51:16.193Z,21.77
2023-02-12T04:53:42.499Z,21.76
2023-02-12T04:56:10.905Z,21.77
2023-02-12T04:58:37.737Z,21.75
2023-02-12T05:01:04.182Z,21.75
2023-02-12T05:03:30.541Z,21.73
2023-02-12T05:05:57.109Z,21.72
2023-02-12T05:08:24.085Z,21.71
2023-02-12T05:10:50.424Z,21.69
2023-02-12T05:13:16.748Z,21.69
2023-02-12T05:15:43.078Z,21.67
2023-02-12T05:18:09.394Z,21.63
2023-02-12T05:20:35.707Z,21.61
2023-02-12T05:23:02.034Z,21.60
2023-02-12T05:25:28.347Z,21.58
2023-02-12T05:27:56.670Z,21.57
2023-02-12T05:30:23.004Z,21.55
2023-02-12T05:32:49.546Z,21.54
2023-02-12T05:35:15.879Z,21.53
2023-02-12T05:37:42.181Z,21.51
2023-02-12T05:40:08.886Z,21.50
2023-02-12T05:42:35.216Z,21.48
2023-02-12T05:45:01.534Z,21.47
2023-02-12T05:47:27.865Z,21.46
2023-02-12T05:49:54.467Z,21.45
2023-02-12T05:52:20.799Z,21.44
2023-02-12T05:54:48.997Z,21.42
2023-02-12T05:57:15.328Z,21.42
2023-02-12T05:59:41.631Z,21.42
2023-02-12T06:02:08.016Z,21.42
2023-02-12T06:04:34.340Z,21.42
2023-02-12T06:07:00.725Z,21.43
2023-02-12T06:09:27.061Z,21.42
2023-02-12T06:11:53.629Z,21.45
2023-02-12T06:14:20.016Z,21.43
2023-02-12T06:16:46.940Z,21.45
2023-02-12T06:19:13.253Z,21.45
2023-02-12T06:21:39.604Z,21.47
2023-02-12T06:24:05.920Z,21.46
2023-02-12T06:26:32.247Z,21.46
2023-02-12T06:28:58.751Z,21.43
2023-02-12T06:31:31.895Z,21.38
2023-02-12T06:34:00.051Z,21.39
2023-02-12T06:36:26.367Z,21.39
2023-02-12T06:38:52.702Z,21.36
2023-02-12T06:41:20.535Z,21.33
2023-02-12T06:43:46.864Z,21.33
2023-02-12T06:46:13.231Z,21.38
2023-02-12T06:48:39.603Z,21.39
2023-02-12T06:51:06.049Z,21.41
2023-02-12T06:53:32.784Z,21.41
2023-02-12T06:56:00.576Z,21.41
2023-02-12T06:58:26.888Z,21.40
2023-02-12T07:00:53.215Z,21.40
2023-02-12T07:03:19.560Z,21.40
2023-02-12T07:05:46.168Z,21.39
2023-02-12T07:08:12.480Z,21.37
2023-02-12T07:10:38.793Z,21.38
2023-02-12T07:13:05.176Z,21.38
2023-02-12T07:15:31.492Z,21.37
2023-02-12T07:17:57.832Z,21.35
2023-02-12T07:20:24.148Z,21.33
2023-02-12T07:22:50.488Z,21.32
2023-02-12T07:25:16.792Z,21.33
2023-02-12T07:27:43.116Z,21.32
2023-02-12T07:30:09.557Z,21.33
2023-02-12T07:32:35.941Z,21.33
2023-02-12T07:35:02.259Z,21.33
2023-02-12T07:37:28.717Z,21.32
2023-02-12T07:39:55.094Z,21.32
2023-02-12T07:42:21.405Z,21.31
2023-02-12T07:44:48.203Z,21.32
2023-02-12T07:47:15.206Z,21.29
2023-02-12T07:49:41.516Z,21.28
2023-02-12T07:52:07.819Z,21.27
2023-02-12T07:54:34.207Z,21.29
2023-02-12T07:57:00.633Z,21.33
2023-02-12T07:59:27.049Z,21.34
2023-02-12T08:01:53.366Z,21.33
2023-02-12T08:04:23.943Z,21.35
2023-02-12T08:06:50.810Z,21.36
2023-02-12T08:09:18.224Z,21.36
2023-02-12T08:11:44.594Z,21.36
2023-02-12T08:14:11.404Z,21.34
2023-02-12T08:16:38.380Z,21.24
2023-02-12T08:19:16.993Z,21.21
2023-02-12T08:21:45.476Z,21.23
2023-02-12T08:24:12.019Z,21.30
2023-02-12T08:26:38.602Z,21.36
2023-02-12T08:29:05.928Z,21.39
2023-02-12T08:31:32.926Z,21.39
2023-02-12T08:33:59.249Z,21.38
2023-02-12T08:36:26.391Z,21.39
2023-02-12T08:38:52.752Z,21.39
2023-02-12T08:41:21.385Z,21.39
2023-02-12T08:43:49.250Z,21.38
2023-02-12T08:46:16.894Z,21.46
2023-02-12T08:48:43.587Z,21.46
2023-02-12T08:51:17.317Z,21.51
2023-02-12T08:53:43.828Z,21.54
2023-02-12T08:56:10.376Z,21.54
2023-02-12T08:58:36.748Z,21.51
2023-02-12T09:01:03.512Z,21.51
2023-02-12T09:03:29.865Z,21.49
2023-02-12T09:05:56.734Z,21.46
2023-02-12T09:08:23.230Z,21.46
2023-02-12T09:10:49.539Z,21.46
2023-02-12T09:13:15.897Z,21.55
2023-02-12T09:15:44.859Z,21.56
2023-02-12T09:18:11.500Z,21.54
2023-02-12T09:20:38.912Z,21.60
2023-02-12T09:23:05.869Z,21.52
2023-02-12T09:25:34.366Z,21.41
2023-02-12T09:28:01.461Z,21.32
2023-02-12T09:30:27.909Z,21.34
2023-02-12T09:32:54.728Z,21.39
2023-02-12T09:35:21.058Z,21.41
2023-02-12T09:37:47.655Z,21.47
2023-02-12T09:40:18.878Z,21.51
2023-02-12T09:43:04.059Z,21.49
2023-02-12T09:45:32.961Z,21.44
2023-02-12T09:48:05.194Z,21.47
2023-02-12T09:50:37.634Z,21.55
2023-02-12T09:53:04.286Z,21.55
2023-02-12T09:55:31.260Z,21.55
2023-02-12T09:57:57.586Z,21.53
2023-02-12T10:00:25.040Z,21.54
2023-02-12T10:02:51.983Z,21.55
2023-02-12T10:05:29.033Z,21.54
2023-02-12T10:07:58.361Z,21.52
2023-02-12T10:10:31.484Z,21.54
2023-02-12T10:12:58.940Z,21.57
2023-02-12T10:15:38.772Z,21.62
2023-02-12T10:18:20.370Z,21.62
2023-02-12T10:20:49.137Z,21.55
2023-02-12T10:23:21.462Z,21.59
2023-02-12T10:25:53.847Z,21.59
2023-02-12T10:28:25.333Z,21.60
2023-02-12T10:30:59.077Z,21.59
2023-02-12T10:33:31.281Z,21.59
2023-02-12T10:36:05.015Z,21.68
2023-02-12T10:38:32.737Z,21.69
2023-02-12T10:41:01.788Z,21.69
2023-02-12T10:43:28.451Z,21.71
2023-02-12T10:45:55.011Z,21.68
2023-02-12T10:48:24.582Z,21.66
2023-02-12T10:50:59.994Z,21.70
2023-02-12T10:53:29.613Z,21.72
2023-02-12T10:56:06.693Z,21.72
2023-02-12T10:58:33.278Z,21.68
2023-02-12T11:01:00.156Z,21.63
2023-02-12T11:03:30.446Z,21.67
2023-02-12T11:05:57.313Z,21.66
2023-02-12T11:08:29.890Z,21.69
2023-02-12T11:10:56.223Z,21.68
2023-02-12T11:13:23.473Z,21.60
2023-02-12T11:15:49.936Z,21.48
2023-02-12T11:18:25.207Z,21.52
2023-02-12T11:20:55.964Z,21.51
2023-02-12T11:23:29.765Z,21.47
2023-02-12T11:26:05.879Z,21.50
2023-02-12T11:28:32.627Z,21.51
2023-02-12T11:31:03.012Z,21.52
2023-02-12T11:33:30.473Z,21.55
2023-02-12T11:35:57.838Z,21.55
2023-02-12T11:38:25.215Z,21.62
2023-02-12T11:40:52.444Z,21.64
2023-02-12T11:43:19.153Z,21.64
2023-02-12T11:45:49.776Z,21.61
2023-02-12T11:48:37.610Z,21.62
2023-02-12T11:51:04.313Z,21.65
2023-02-12T11:53:32.162Z,21.64
2023-02-12T11:56:00.072Z,21.64
2023-02-12T11:58:26.802Z,21.69
2023-02-12T12:00:58.941Z,21.68
2023-02-12T12:03:45.456Z,21.65
2023-02-12T12:06:14.556Z,21.63
2023-02-12T12:08:53.136Z,21.59
2023-02-12T12:11:42.812Z,21.58
2023-02-12T12:14:13.449Z,21.57
2023-02-12T12:17:02.585Z,21.57
2023-02-12T12:19:50.176Z,21.56
2023-02-12T12:22:18.837Z,21.55
2023-02-12T12:24:52.131Z,21.55
2023-02-12T12:27:40.458Z,21.58
2023-02-12T12:30:10.944Z,21.55
2023-02-12T12:32:37.579Z,21.55
2023-02-12T12:35:03.891Z,21.56
2023-02-12T12:37:37.672Z,21.57
2023-02-12T12:40:08.207Z,21.55
2023-02-12T12:42:41.100Z,21.54
2023-02-12T12:45:26.149Z,21.53
2023-02-12T12:47:55.798Z,21.53
2023-02-12T12:50:37.439Z,21.52
2023-02-12T12:53:04.156Z,21.54
2023-02-12T12:55:49.080Z,21.53
2023-02-12T12:58:19.007Z,21.53
2023-02-12T13:00:48.683Z,21.53
2023-02-12T13:03:18.040Z,21.50
2023-02-12T13:05:44.305Z,21.54
2023-02-12T13:08:15.236Z,21.53
2023-02-12T13:10:44.518Z,21.52
2023-02-12T13:13:15.474Z,21.54
2023-02-12T13:15:50.784Z,21.52
2023-02-12T13:18:19.850Z,21.51
2023-02-12T13:20:55.271Z,21.52
2023-02-12T13:23:24.090Z,21.51
2023-02-12T13:25:59.900Z,21.51
2023-02-12T13:28:30.077Z,21.51
2023-02-12T13:30:56.615Z,21.51
2023-02-12T13:33:27.731Z,21.50
2023-02-12T13:35:59.236Z,21.51
2023-02-12T13:38:26.175Z,21.50
2023-02-12T13:40:53.357Z,21.48
2023-02-12T13:43:19.637Z,21.50
2023-02-12T13:45:53.108Z,21.53
2023-02-12T13:48:38.400Z,21.56
2023-02-12T13:51:04.731Z,21.71
2023-02-12T13:53:49.801Z,21.74
2023-02-12T13:56:29.650Z,21.88
2023-02-12T13:58:56.251Z,22.08
2023-02-12T14:01:34.873Z,22.31
2023-02-12T14:04:14.021Z,22.51
2023-02-12T14:06:40.336Z,22.70
2023-02-12T14:09:10.131Z,22.79
2023-02-12T14:11:46.312Z,22.83
2023-02-12T14:14:12.626Z,22.86
2023-02-12T14:16:39.734Z,22.86
2023-02-12T14:19:24.915Z,22.91
2023-02-12T14:21:51.237Z,22.93
2023-02-12T14:24:35.937Z,22.96
2023-02-12T14:27:03.195Z,22.98
2023-02-12T14:29:29.508Z,23.04
2023-02-12T14:31:56.441Z,23.11
2023-02-12T14:34:22.736Z,23.16
2023-02-12T14:36:49.242Z,23.22
2023-02-12T14:39:22.215Z,23.28
2023-02-12T14:41:48.974Z,23.34
2023-02-12T14:44:18.195Z,23.34
2023-02-12T14:46:54.190Z,23.37
2023-02-12T14:49:27.064Z,23.40
2023-02-12T14:51:53.343Z,23.40
2023-02-12T14:54:27.769Z,23.42
2023-02-12T14:56:55.585Z,23.51
2023-02-12T14:59:23.085Z,23.58
2023-02-12T15:01:49.454Z,23.65
2023-02-12T15:04:28.767Z,23.69
2023-02-12T15:06:56.710Z,23.71
2023-02-12T15:09:35.624Z,23.73
2023-02-12T15:12:06.119Z,23.76
2023-02-12T15:14:32.424Z,23.75
2023-02-12T15:16:59.954Z,23.80
2023-02-12T15:19:30.750Z,23.75
2023-02-12T15:21:57.108Z,23.77
2023-02-12T15:24:24.148Z,23.75
2023-02-12T15:26:51.459Z,23.75
2023-02-12T15:29:20.892Z,23.77
2023-02-12T15:31:50.288Z,23.78
2023-02-12T15:34:17.415Z,23.78
2023-02-12T15:36:44.472Z,23.79
2023-02-12T15:39:15.342Z,23.80
2023-02-12T15:41:43.489Z,23.82
2023-02-12T15:44:23.613Z,23.79
2023-02-12T15:47:00.176Z,23.79
2023-02-12T15:49:27.140Z,23.77
2023-02-12T15:51:53.682Z,23.79
2023-02-12T15:54:20.166Z,23.77
2023-02-12T15:56:46.488Z,23.76
2023-02-12T15:59:18.736Z,23.70
2023-02-12T16:01:51.813Z,23.66
2023-02-12T16:04:18.250Z,23.63
2023-02-12T16:06:44.594Z,23.65
2023-02-12T16:09:13.963Z,23.63
2023-02-12T16:11:40.306Z,23.62
2023-02-12T16:14:19.362Z,23.63
2023-02-12T16:16:48.700Z,23.69
2023-02-12T16:19:22.019Z,23.72
2023-02-12T16:21:49.879Z,23.72
2023-02-12T16:24:21.747Z,23.70
2023-02-12T16:26:48.770Z,23.70
2023-02-12T16:29:18.157Z,23.85
2023-02-12T16:31:54.462Z,24.02
2023-02-12T16:34:27.257Z,24.02
2023-02-12T16:36:53.588Z,23.95
2023-02-12T16:39:38.967Z,24.11
2023-02-12T16:42:09.858Z,24.21
2023-02-12T16:44:36.219Z,24.51
2023-02-12T16:47:02.714Z,24.73
2023-02-12T16:49:29.026Z,24.87
2023-02-12T16:52:15.327Z,24.92
2023-02-12T16:54:41.639Z,24.91
2023-02-12T16:57:09.790Z,24.94
2023-02-12T16:59:43.302Z,25.01
2023-02-12T17:02:10.934Z,25.01
2023-02-12T17:04:37.249Z,25.06
2023-02-12T17:07:03.589Z,25.13
2023-02-12T17:09:30.136Z,25.17
2023-02-12T17:11:57.424Z,25.27
2023-02-12T17:14:23.734Z,25.36
2023-02-12T17:16:50.381Z,25.46
2023-02-12T17:19:17.238Z,25.59
2023-02-12T17:21:44.102Z,25.71
2023-02-12T17:24:14.168Z,25.83
2023-02-12T17:26:40.520Z,25.91
2023-02-12T17:29:06.840Z,26.02
2023-02-12T17:31:33.684Z,26.07
2023-02-12T17:34:00.135Z,26.11
2023-02-12T17:36:26.548Z,26.20
2023-02-12T17:38:52.872Z,26.23
2023-02-12T17:41:19.188Z,26.18
2023-02-12T17:43:46.333Z,26.17
2023-02-12T17:46:13.974Z,26.17
2023-02-12T17:48:40.966Z,26.15
2023-02-12T17:51:08.712Z,26.14
2023-02-12T17:53:35.032Z,26.17
2023-02-12T17:56:01.348Z,26.25
2023-02-12T17:58:27.707Z,26.17
2023-02-12T18:00:55.302Z,26.17
2023-02-12T18:03:21.907Z,26.13
2023-02-12T18:05:48.242Z,26.13
2023-02-12T18:08:14.625Z,26.09
2023-02-12T18:10:41.652Z,26.06
2023-02-12T18:13:07.996Z,26.08
2023-02-12T18:15:34.383Z,26.08
2023-02-12T18:18:00.742Z,26.02
2023-02-12T18:20:27.490Z,26.00
2023-02-12T18:22:53.887Z,26.00
2023-02-12T18:25:20.210Z,25.95
2023-02-12T18:27:46.549Z,25.95
2023-02-12T18:30:13.142Z,25.95
2023-02-12T18:32:39.477Z,25.96
2023-02-12T18:35:06.311Z,25.97
2023-02-12T18:37:32.786Z,25.95
2023-02-12T18:39:59.167Z,25.95
2023-02-12T18:42:26.113Z,25.95
2023-02-12T18:44:52.514Z,25.94
2023-02-12T18:47:19.724Z,25.98
2023-02-12T18:49:46.092Z,25.98
2023-02-12T18:52:12.397Z,25.94
2023-02-12T18:54:38.716Z,25.93
2023-02-12T18:57:05.044Z,25.91
2023-02-12T18:59:31.360Z,25.94
2023-02-12T19:01:57.806Z,25.90
2023-02-12T19:04:26.487Z,25.95
2023-02-12T19:06:53.310Z,25.72
2023-02-12T19:09:20.357Z,25.54
2023-02-12T19:11:47.427Z,25.49
2023-02-12T19:14:14.239Z,25.48
2023-02-12T19:16:40.663Z,25.49
2023-02-12T19:19:08.167Z,25.47
2023-02-12T19:21:34.530Z,25.45
2023-02-12T19:24:01.389Z,25.41
2023-02-12T19:26:28.834Z,25.40
2023-02-12T19:28:55.466Z,25.38
2023-02-12T19:31:21.819Z,25.37
2023-02-12T19:33:48.641Z,25.36
2023-02-12T19:36:15.910Z,25.29
2023-02-12T19:38:42.238Z,25.33
2023-02-12T19:41:12.795Z,25.30
2023-02-12T19:43:39.140Z,25.29
2023-02-12T19:46:06.879Z,25.24
2023-02-12T19:48:33.213Z,25.23
2023-02-12T19:50:59.529Z,25.21
2023-02-12T19:53:25.876Z,25.20
2023-02-12T19:55:52.183Z,25.15
2023-02-12T19:58:18.754Z,25.13
2023-02-12T20:00:45.068Z,25.10
2023-02-12T20:03:11.729Z,25.07
2023-02-12T20:05:44.563Z,25.07
2023-02-12T20:08:10.928Z,25.04
2023-02-12T20:10:40.520Z,25.02
2023-02-12T20:13:06.892Z,24.97
2023-02-12T20:15:34.261Z,24.96
2023-02-12T20:18:00.616Z,24.94
2023-02-12T20:20:26.923Z,24.89
2023-02-12T20:22:53.245Z,24.85
2023-02-12T20:25:19.600Z,24.79
2023-02-12T20:27:45.914Z,24.73
2023-02-12T20:30:12.376Z,24.74
2023-02-12T20:32:38.712Z,24.77
2023-02-12T20:35:05.106Z,24.74
2023-02-12T20:37:33.063Z,24.73
2023-02-12T20:39:59.378Z,24.67
2023-02-12T20:42:25.713Z,24.63
2023-02-12T20:44:52.028Z,24.61
2023-02-12T20:47:18.334Z,24.59
2023-02-12T20:49:44.648Z,24.54
2023-02-12T20:52:11.160Z,24.52
2023-02-12T20:54:39.260Z,24.50
2023-02-12T20:57:06.918Z,24.42
2023-02-12T20:59:33.222Z,24.41
2023-02-12T21:01:59.554Z,24.38
2023-02-12T21:04:26.532Z,24.35
2023-02-12T21:06:53.405Z,24.32
2023-02-12T21:09:19.896Z,24.31
2023-02-12T21:11:46.334Z,24.28
2023-02-12T21:14:23.175Z,24.31
2023-02-12T21:16:50.108Z,24.28
2023-02-12T21:19:17.836Z,24.25
2023-02-12T21:21:45.445Z,24.23
2023-02-12T21:24:12.855Z,24.14
2023-02-12T21:26:39.164Z,24.34
2023-02-12T21:29:05.494Z,24.43
2023-02-12T21:31:31.929Z,24.49
2023-02-12T21:33:58.614Z,24.52
2023-02-12T21:36:28.817Z,24.51
2023-02-12T21:38:55.181Z,24.53
2023-02-12T21:41:25.362Z,24.50
2023-02-12T21:44:11.874Z,24.52
2023-02-12T21:46:38.188Z,24.40
2023-02-12T21:49:04.760Z,24.26
2023-02-12T21:51:32.312Z,24.30
2023-02-12T21:53:59.341Z,24.39
2023-02-12T21:56:25.800Z,24.30
2023-02-12T21:58:52.149Z,24.25
2023-02-12T22:01:22.814Z,24.35
2023-02-12T22:03:49.204Z,24.47
2023-02-12T22:06:17.623Z,24.65
2023-02-12T22:08:43.943Z,25.06
2023-02-12T22:11:10.420Z,25.24
2023-02-12T22:13:37.399Z,25.35
2023-02-12T22:16:19.901Z,25.40
2023-02-12T22:18:46.345Z,25.45
2023-02-12T22:21:13.698Z,25.57
2023-02-12T22:23:40.126Z,25.62
2023-02-12T22:26:10.641Z,25.66
2023-02-12T22:28:40.936Z,25.69
2023-02-12T22:31:07.901Z,25.70
2023-02-12T22:33:34.216Z,25.59
2023-02-12T22:36:07.569Z,25.42
2023-02-12T22:38:34.288Z,25.61
2023-02-12T22:41:00.712Z,25.69
2023-02-12T22:43:30.247Z,25.74
2023-02-12T22:45:56.714Z,25.75
2023-02-12T22:48:23.239Z,25.59
2023-02-12T22:50:49.554Z,25.29
2023-02-12T22:53:15.921Z,25.19
2023-02-12T22:55:42.245Z,25.45
2023-02-12T22:58:08.596Z,25.59
2023-02-12T23:00:34.907Z,25.66
2023-02-12T23:03:01.212Z,25.72
2023-02-12T23:05:27.588Z,25.72
2023-02-12T23:07:53.905Z,25.71
2023-02-12T23:10:20.254Z,25.71
2023-02-12T23:12:46.559Z,25.71
2023-02-12T23:15:12.877Z,25.71
2023-02-12T23:17:39.194Z,25.35
2023-02-12T23:20:05.593Z,25.47
2023-02-12T23:22:31.916Z,25.58
2023-02-12T23:24:58.240Z,25.64
2023-02-12T23:27:24.568Z,25.65
2023-02-12T23:29:50.880Z,25.64
2023-02-12T23:32:17.367Z,25.52
2023-02-12T23:34:43.687Z,25.16
2023-02-12T23:37:10.012Z,25.01
2023-02-12T23:39:37.155Z,25.32
2023-02-12T23:42:03.584Z,25.47
2023-02-12T23:44:29.945Z,25.54
2023-02-12T23:46:56.246Z,25.54
2023-02-12T23:49:22.593Z,25.57
2023-02-12T23:51:48.968Z,25.59
2023-02-12T23:54:15.307Z,25.58
2023-02-12T23:56:41.614Z,25.42
2023-02-12T23:59:07.925Z,25.11
